Time;durP1;ratioP1;P1;durP2;ratioP2;P2;SDS_P1;SDS_P2;PMS_P1;PMS_P2;Temp;Humidity;BMP_temperature;BMP_pressure;BME280_temperature;BME280_humidity;BME280_pressure;Samples;Min_cycle;Max_cycle;Signal;HPM_P1;HPM_P2
2021/05/23 00:00:59;;;;;;;1.33;1.10;;;9.70;99.90;;;;;;5046019;28;21114;-61
2021/05/23 00:03:26;;;;;;;1.33;1.13;;;9.60;99.70;;;;;;5025777;28;20542;-60
2021/05/23 00:05:53;;;;;;;5.63;2.27;;;9.60;99.90;;;;;;5042187;28;20421;-59
2021/05/23 00:08:20;;;;;;;2.23;1.60;;;9.60;99.90;;;;;;5042391;28;20797;-60
2021/05/23 00:11:01;;;;;;;2.40;1.10;;;9.60;99.90;;;;;;5045644;28;20452;-60
2021/05/23 00:13:33;;;;;;;1.23;1.23;;;9.60;99.90;;;;;;5041321;28;20445;-60
2021/05/23 00:16:02;;;;;;;1.03;0.90;;;9.60;99.90;;;;;;5024853;28;20767;-59
2021/05/23 00:18:33;;;;;;;2.80;1.30;;;9.60;99.90;;;;;;5042502;28;20491;-61
2021/05/23 00:20:59;;;;;;;2.00;1.20;;;9.60;99.90;;;;;;5041327;28;20582;-60
2021/05/23 00:23:25;;;;;;;2.30;1.20;;;9.60;99.90;;;;;;5026678;28;20943;-59
2021/05/23 00:25:52;;;;;;;1.20;1.07;;;9.50;99.90;;;;;;5040516;28;20187;-65
2021/05/23 00:28:18;;;;;;;2.00;1.10;;;9.50;99.90;;;;;;5046079;28;20258;-60
2021/05/23 00:30:44;;;;;;;1.80;0.97;;;9.50;99.90;;;;;;5041833;28;20454;-60
2021/05/23 00:33:10;;;;;;;1.20;1.10;;;9.40;99.90;;;;;;5044021;28;20432;-60
2021/05/23 00:35:36;;;;;;;1.17;1.07;;;9.50;99.90;;;;;;5043065;28;20176;-60
2021/05/23 00:38:03;;;;;;;1.00;0.97;;;9.40;99.90;;;;;;5043297;28;20526;-60
2021/05/23 00:40:29;;;;;;;1.27;1.17;;;9.40;99.90;;;;;;5047528;28;20445;-60
2021/05/23 00:42:55;;;;;;;1.00;1.00;;;9.40;99.90;;;;;;5048931;28;20437;-61
2021/05/23 00:45:21;;;;;;;1.17;1.07;;;9.40;99.90;;;;;;5042940;28;20429;-60
2021/05/23 00:47:48;;;;;;;1.10;1.10;;;9.40;99.90;;;;;;5042479;28;20180;-60
2021/05/23 00:50:20;;;;;;;1.00;1.00;;;9.40;99.90;;;;;;5040488;28;20537;-60
2021/05/23 00:52:46;;;;;;;1.03;1.03;;;9.40;99.90;;;;;;5026488;28;20814;-61
2021/05/23 00:55:12;;;;;;;1.40;1.20;;;9.30;99.90;;;;;;5027176;28;20435;-62
2021/05/23 00:57:38;;;;;;;1.20;1.10;;;9.30;99.90;;;;;;5030546;28;20524;-59
2021/05/23 01:00:06;;;;;;;2.63;1.10;;;9.30;99.90;;;;;;5030571;28;20203;-59
2021/05/23 01:02:47;;;;;;;0.93;0.93;;;9.30;99.90;;;;;;5047919;28;20234;-60
2021/05/23 01:05:20;;;;;;;1.07;1.03;;;9.30;99.90;;;;;;5030751;28;20490;-60
2021/05/23 01:07:46;;;;;;;1.47;1.23;;;9.30;99.90;;;;;;5032561;28;21137;-61
2021/05/23 01:10:15;;;;;;;1.30;1.20;;;9.30;99.90;;;;;;5029579;28;21014;-60
2021/05/23 01:12:46;;;;;;;1.60;1.20;;;9.30;99.90;;;;;;5047777;28;21000;-60
2021/05/23 01:15:12;;;;;;;1.93;1.30;;;9.30;99.90;;;;;;5041172;28;20472;-60
2021/05/23 01:17:41;;;;;;;1.83;1.30;;;9.30;99.90;;;;;;5030337;28;20422;-61
2021/05/23 01:20:21;;;;;;;1.30;1.20;;;9.20;99.90;;;;;;5049050;28;20834;-60
2021/05/23 01:23:31;;;;;;;1.20;1.00;;;9.20;99.90;;;;;;5042153;28;20495;-60
2021/05/23 01:26:06;;;;;;;1.43;1.10;;;9.20;99.90;;;;;;4951522;28;20937;-61
2021/05/23 01:28:36;;;;;;;1.30;1.20;;;9.20;99.90;;;;;;5030662;28;20767;-60
2021/05/23 01:31:07;;;;;;;1.80;1.10;;;9.10;99.90;;;;;;5038787;28;20453;-60
2021/05/23 01:33:33;;;;;;;1.57;1.20;;;9.10;99.90;;;;;;5048796;28;20844;-60
2021/05/23 01:35:59;;;;;;;3.20;1.73;;;9.10;99.90;;;;;;5023020;28;20969;-61
2021/05/23 01:38:27;;;;;;;2.60;1.80;;;9.10;99.90;;;;;;5025237;28;20434;-60
2021/05/23 01:41:02;;;;;;;5.87;2.03;;;9.10;99.90;;;;;;5036545;28;20480;-60
2021/05/23 01:43:29;;;;;;;6.73;1.93;;;9.10;99.90;;;;;;5043355;28;20984;-60
2021/05/23 01:45:55;;;;;;;2.97;1.53;;;9.10;99.90;;;;;;5043678;28;20430;-60
2021/05/23 01:48:21;;;;;;;2.17;1.40;;;9.10;99.90;;;;;;5046923;28;20434;-60
2021/05/23 01:50:47;;;;;;;1.40;1.30;;;9.10;99.90;;;;;;5047763;28;20981;-59
2021/05/23 01:53:12;;;;;;;1.40;1.30;;;9.00;99.90;;;;;;5048817;28;20171;-60
2021/05/23 01:55:38;;;;;;;1.60;1.23;;;9.00;99.90;;;;;;5031503;28;20188;-60
2021/05/23 01:58:05;;;;;;;2.20;1.27;;;9.00;99.90;;;;;;5046535;28;20170;-60
2021/05/23 02:00:43;;;;;;;1.00;1.00;;;9.00;99.90;;;;;;5030399;28;20214;-59
2021/05/23 02:03:10;;;;;;;1.07;1.07;;;9.00;99.90;;;;;;5041492;28;20440;-61
2021/05/23 02:05:40;;;;;;;3.13;1.20;;;8.90;99.90;;;;;;5043853;28;20832;-60
2021/05/23 02:08:07;;;;;;;2.10;1.13;;;9.00;99.90;;;;;;5048229;28;20441;-61
2021/05/23 02:10:33;;;;;;;1.27;1.17;;;8.90;99.90;;;;;;5043664;28;20453;-61
2021/05/23 02:13:03;;;;;;;1.00;1.00;;;8.90;99.90;;;;;;5044241;28;20960;-61
2021/05/23 02:15:30;;;;;;;1.10;1.07;;;8.90;99.90;;;;;;5045641;28;20429;-60
2021/05/23 02:17:56;;;;;;;1.43;1.00;;;8.90;99.90;;;;;;5048508;28;20528;-61
2021/05/23 02:20:26;;;;;;;1.30;1.20;;;8.90;99.90;;;;;;5043839;28;20603;-61
2021/05/23 02:22:54;;;;;;;1.10;1.10;;;8.90;99.90;;;;;;5046691;28;20194;-62
2021/05/23 02:25:21;;;;;;;1.13;0.80;;;8.90;99.90;;;;;;5029861;28;20848;-61
2021/05/23 02:27:50;;;;;;;0.83;0.83;;;8.90;99.90;;;;;;5045537;28;20475;-61
2021/05/23 02:30:16;;;;;;;1.00;1.00;;;8.80;99.90;;;;;;5048101;28;20456;-61
2021/05/23 02:32:42;;;;;;;0.90;0.90;;;8.90;99.90;;;;;;5048578;28;20805;-61
2021/05/23 02:35:09;;;;;;;1.30;1.20;;;8.80;99.90;;;;;;5020677;28;20444;-61
2021/05/23 02:37:35;;;;;;;1.43;0.97;;;8.80;99.90;;;;;;5037210;28;20438;-61
2021/05/23 02:40:05;;;;;;;1.00;1.00;;;8.80;99.90;;;;;;5024839;28;20463;-60
2021/05/23 02:42:31;;;;;;;1.17;1.07;;;8.80;99.90;;;;;;5045258;28;20452;-60
2021/05/23 02:44:56;;;;;;;2.20;1.10;;;8.80;99.90;;;;;;5046251;28;20437;-61
2021/05/23 02:47:22;;;;;;;1.10;1.00;;;8.90;99.90;;;;;;5027575;28;20549;-61
2021/05/23 02:49:48;;;;;;;1.67;1.20;;;8.90;99.90;;;;;;5043144;28;20191;-61
2021/05/23 02:52:13;;;;;;;0.90;0.90;;;8.90;99.90;;;;;;5029424;28;20266;-60
2021/05/23 02:54:39;;;;;;;1.17;1.17;;;8.90;99.90;;;;;;5026604;28;20175;-60
2021/05/23 02:57:05;;;;;;;0.90;0.90;;;8.90;99.90;;;;;;5046544;28;20189;-61
2021/05/23 02:59:31;;;;;;;1.30;1.20;;;8.80;99.90;;;;;;5045099;28;20283;-60
2021/05/23 03:01:57;;;;;;;3.20;1.23;;;8.80;99.90;;;;;;5052296;28;21025;-61
2021/05/23 03:04:23;;;;;;;1.20;1.10;;;8.80;99.90;;;;;;5033718;28;20183;-61
2021/05/23 03:06:50;;;;;;;1.37;1.20;;;8.80;99.90;;;;;;5034791;28;20859;-61
2021/05/23 03:09:15;;;;;;;1.13;1.00;;;8.70;99.90;;;;;;5034117;28;20516;-58
2021/05/23 03:11:43;;;;;;;1.10;1.00;;;8.70;99.90;;;;;;5026752;28;20898;-61
2021/05/23 03:14:09;;;;;;;1.53;1.10;;;8.70;99.90;;;;;;5043281;28;20187;-61
2021/05/23 03:16:36;;;;;;;1.20;1.10;;;8.60;99.90;;;;;;5032583;28;20441;-61
2021/05/23 03:19:02;;;;;;;1.20;1.10;;;8.60;99.90;;;;;;5048712;28;20991;-61
2021/05/23 03:21:27;;;;;;;2.90;1.10;;;8.60;99.90;;;;;;5046110;28;20470;-60
2021/05/23 03:23:53;;;;;;;1.53;1.00;;;8.60;99.90;;;;;;5041039;28;20439;-61
2021/05/23 03:26:19;;;;;;;1.10;1.10;;;8.60;99.90;;;;;;5050608;28;20171;-61
2021/05/23 03:28:44;;;;;;;1.07;0.97;;;8.70;99.90;;;;;;5051005;28;20211;-61
2021/05/23 03:31:10;;;;;;;1.17;1.10;;;8.60;99.90;;;;;;5027638;28;20620;-61
2021/05/23 03:33:35;;;;;;;1.00;1.00;;;8.60;99.90;;;;;;5029628;28;20197;-60
2021/05/23 03:36:01;;;;;;;1.50;1.17;;;8.70;99.90;;;;;;5033807;28;20639;-60
2021/05/23 03:38:27;;;;;;;1.00;1.00;;;8.70;99.90;;;;;;5052802;28;20187;-60
2021/05/23 03:40:52;;;;;;;2.20;1.10;;;8.70;99.90;;;;;;5038409;28;20202;-60
2021/05/23 03:43:18;;;;;;;1.17;1.07;;;8.70;99.90;;;;;;5025049;28;20709;-60
2021/05/23 03:45:44;;;;;;;1.10;1.10;;;8.70;99.90;;;;;;5045522;28;20554;-61
2021/05/23 03:48:10;;;;;;;1.90;1.20;;;8.70;99.90;;;;;;5050495;28;20182;-61
2021/05/23 03:50:35;;;;;;;1.23;1.13;;;8.70;99.90;;;;;;5051514;28;20714;-61
2021/05/23 03:53:01;;;;;;;1.27;1.17;;;8.60;99.90;;;;;;5032802;28;20710;-61
2021/05/23 03:55:28;;;;;;;1.00;1.00;;;8.60;99.90;;;;;;5049953;28;20232;-60
2021/05/23 03:57:54;;;;;;;1.40;1.10;;;8.60;99.90;;;;;;5031110;28;20229;-60
2021/05/23 04:00:21;;;;;;;1.10;1.10;;;8.50;99.90;;;;;;5047934;28;20487;-61
2021/05/23 04:02:51;;;;;;;1.00;1.00;;;8.60;99.90;;;;;;5043928;28;21072;-60
2021/05/23 04:05:17;;;;;;;1.20;1.10;;;8.60;99.90;;;;;;5025662;28;20989;-60
2021/05/23 04:07:42;;;;;;;0.90;0.90;;;8.60;99.90;;;;;;5045594;28;20457;-61
2021/05/23 04:10:10;;;;;;;2.17;1.43;;;8.60;99.90;;;;;;5045036;28;20511;-61
2021/05/23 04:12:40;;;;;;;1.83;1.00;;;8.60;99.90;;;;;;5046659;28;20229;-61
2021/05/23 04:15:07;;;;;;;4.10;0.90;;;8.50;99.90;;;;;;5032090;28;20515;-60
2021/05/23 04:17:33;;;;;;;1.00;1.00;;;8.50;99.90;;;;;;5049351;28;20511;-60
2021/05/23 04:19:59;;;;;;;1.10;1.00;;;8.50;99.90;;;;;;5047397;28;20496;-60
2021/05/23 04:22:24;;;;;;;0.90;0.90;;;8.60;99.90;;;;;;5039590;28;20761;-61
2021/05/23 04:24:50;;;;;;;1.40;1.20;;;8.50;99.90;;;;;;5053054;28;20178;-60
2021/05/23 04:27:16;;;;;;;1.20;1.10;;;8.50;99.90;;;;;;5054084;28;20739;-61
2021/05/23 04:29:42;;;;;;;0.90;0.90;;;8.50;99.90;;;;;;5058122;28;20207;-61
2021/05/23 04:32:08;;;;;;;1.27;1.03;;;8.50;99.90;;;;;;5057194;28;20513;-61
2021/05/23 04:34:36;;;;;;;1.03;1.00;;;8.50;99.90;;;;;;5052778;28;20468;-60
2021/05/23 04:37:02;;;;;;;3.33;1.10;;;8.50;99.90;;;;;;5055605;28;20437;-60
2021/05/23 04:39:28;;;;;;;1.00;0.90;;;8.50;99.90;;;;;;5047705;28;20492;-61
2021/05/23 04:41:53;;;;;;;1.90;1.20;;;8.60;99.90;;;;;;5040167;28;20552;-61
2021/05/23 04:44:19;;;;;;;1.47;0.80;;;8.60;99.90;;;;;;5049686;28;20183;-60
2021/05/23 04:46:44;;;;;;;1.70;1.00;;;8.60;99.90;;;;;;5050856;28;20549;-60
2021/05/23 04:49:10;;;;;;;1.60;1.50;;;8.60;99.90;;;;;;5050852;28;20171;-61
2021/05/23 04:51:36;;;;;;;0.90;0.90;;;8.60;99.90;;;;;;5027613;28;20203;-60
2021/05/23 04:54:02;;;;;;;2.73;1.10;;;8.70;99.90;;;;;;5049479;28;20179;-60
2021/05/23 04:56:27;;;;;;;1.00;0.93;;;8.70;99.90;;;;;;5028627;28;20219;-60
2021/05/23 04:58:53;;;;;;;1.37;1.10;;;8.70;99.90;;;;;;5050554;28;20519;-59
2021/05/23 05:01:19;;;;;;;1.60;1.50;;;8.70;99.90;;;;;;5047374;28;20780;-60
2021/05/23 05:03:44;;;;;;;1.63;1.20;;;8.70;99.90;;;;;;5049060;28;20175;-61
2021/05/23 05:06:10;;;;;;;1.70;1.60;;;8.70;99.90;;;;;;5047406;28;20176;-60
2021/05/23 05:08:35;;;;;;;1.33;1.23;;;8.70;99.90;;;;;;5029126;28;20195;-60
2021/05/23 05:11:02;;;;;;;1.30;1.20;;;8.70;99.90;;;;;;5048741;28;20207;-61
2021/05/23 05:13:27;;;;;;;1.50;1.40;;;8.70;99.90;;;;;;5046024;28;20187;-60
2021/05/23 05:15:53;;;;;;;1.40;1.30;;;8.70;99.90;;;;;;5045839;28;20511;-60
2021/05/23 05:18:19;;;;;;;1.37;1.27;;;8.80;99.90;;;;;;5049596;28;20471;-61
2021/05/23 05:20:45;;;;;;;1.17;1.00;;;8.80;99.90;;;;;;5045228;28;20203;-61
2021/05/23 05:23:11;;;;;;;1.20;1.10;;;8.70;99.90;;;;;;5047990;28;20585;-61
2021/05/23 05:25:36;;;;;;;2.40;1.00;;;8.70;99.90;;;;;;5050137;28;20429;-61
2021/05/23 05:28:02;;;;;;;2.47;1.20;;;8.70;99.90;;;;;;5036141;28;20191;-60
2021/05/23 05:30:28;;;;;;;1.13;1.03;;;8.70;99.90;;;;;;5041454;28;20572;-61
2021/05/23 05:32:53;;;;;;;1.63;1.10;;;8.70;99.90;;;;;;5046750;28;20244;-59
2021/05/23 05:35:19;;;;;;;1.03;0.90;;;8.70;99.90;;;;;;5042447;28;20187;-59
2021/05/23 05:37:45;;;;;;;1.10;1.00;;;8.80;99.90;;;;;;5040733;28;20274;-62
2021/05/23 05:40:12;;;;;;;1.37;1.07;;;8.80;99.90;;;;;;5037696;28;20206;-62
2021/05/23 05:42:37;;;;;;;1.10;0.90;;;8.80;99.90;;;;;;5045470;28;20457;-61
2021/05/23 05:45:04;;;;;;;1.40;1.30;;;8.80;99.80;;;;;;5044410;28;20441;-62
2021/05/23 05:47:30;;;;;;;1.77;1.10;;;8.80;99.00;;;;;;5040794;28;20222;-61
2021/05/23 05:49:56;;;;;;;1.10;1.00;;;8.80;98.80;;;;;;5045410;28;20523;-61
2021/05/23 05:52:21;;;;;;;1.10;0.87;;;8.70;98.00;;;;;;5045756;28;20186;-62
2021/05/23 05:54:47;;;;;;;2.10;1.10;;;8.70;98.60;;;;;;5048814;28;20493;-60
2021/05/23 05:57:13;;;;;;;1.13;0.90;;;8.70;99.20;;;;;;5022753;28;20188;-60
2021/05/23 05:59:38;;;;;;;1.80;1.07;;;8.70;99.80;;;;;;5039284;28;20714;-61
2021/05/23 06:02:06;;;;;;;2.20;1.03;;;8.70;99.90;;;;;;5043285;28;20279;-60
2021/05/23 06:04:32;;;;;;;0.90;0.90;;;8.70;99.90;;;;;;5044372;28;20167;-59
2021/05/23 06:06:58;;;;;;;0.80;0.80;;;8.70;99.90;;;;;;5044306;28;20814;-60
2021/05/23 06:09:23;;;;;;;1.90;0.93;;;8.70;99.90;;;;;;5040179;28;20437;-61
2021/05/23 06:11:49;;;;;;;1.40;0.93;;;8.70;99.90;;;;;;5041977;28;20183;-61
2021/05/23 06:14:15;;;;;;;1.00;1.00;;;8.80;99.90;;;;;;5045460;28;20188;-60
2021/05/23 06:16:41;;;;;;;1.00;0.90;;;8.80;99.90;;;;;;5044628;28;20171;-62
2021/05/23 06:19:06;;;;;;;1.30;1.20;;;8.90;99.70;;;;;;5029144;28;20554;-61
2021/05/23 06:21:32;;;;;;;1.00;0.90;;;9.00;99.40;;;;;;5026220;28;20299;-61
2021/05/23 06:23:57;;;;;;;1.00;0.90;;;9.00;98.40;;;;;;5027910;28;20660;-60
2021/05/23 06:26:25;;;;;;;3.43;0.90;;;9.10;99.30;;;;;;5023268;28;21212;-61
2021/05/23 06:28:53;;;;;;;1.93;0.93;;;9.30;99.70;;;;;;5046653;28;20163;-62
2021/05/23 06:31:19;;;;;;;1.07;1.00;;;9.50;97.30;;;;;;5036926;28;21036;-60
2021/05/23 06:33:44;;;;;;;1.13;0.80;;;9.50;98.00;;;;;;5038467;28;20532;-60
2021/05/23 06:36:11;;;;;;;1.63;1.00;;;9.60;98.00;;;;;;5039381;28;20437;-60
2021/05/23 06:38:36;;;;;;;1.37;1.10;;;9.60;97.90;;;;;;5046267;28;20202;-61
2021/05/23 06:41:02;;;;;;;0.90;0.90;;;9.60;97.10;;;;;;5041164;28;20493;-61
2021/05/23 06:43:28;;;;;;;1.30;1.20;;;9.70;98.10;;;;;;5046756;28;20202;-61
2021/05/23 06:45:53;;;;;;;0.90;0.90;;;9.80;97.50;;;;;;5039514;28;20163;-61
2021/05/23 06:48:20;;;;;;;2.07;1.10;;;10.00;96.30;;;;;;5042262;28;20175;-61
2021/05/23 06:50:46;;;;;;;1.40;0.90;;;10.10;94.80;;;;;;5038633;28;20187;-61
2021/05/23 06:53:11;;;;;;;1.27;1.17;;;10.20;94.10;;;;;;5045085;28;20433;-60
2021/05/23 06:55:37;;;;;;;1.03;1.03;;;10.40;95.00;;;;;;5045900;28;20422;-62
2021/05/23 06:58:03;;;;;;;1.77;1.10;;;10.70;95.50;;;;;;5045601;28;20175;-61
2021/05/23 07:00:28;;;;;;;1.63;1.30;;;11.00;93.60;;;;;;5025697;28;20790;-61
2021/05/23 07:02:54;;;;;;;1.13;1.03;;;11.10;92.40;;;;;;5038255;28;20230;-61
2021/05/23 07:05:19;;;;;;;2.80;1.00;;;11.20;91.00;;;;;;5042726;28;20184;-61
2021/05/23 07:07:47;;;;;;;2.10;1.27;;;11.10;91.00;;;;;;5040805;28;20194;-61
2021/05/23 07:10:13;;;;;;;2.17;1.03;;;11.00;90.80;;;;;;5033829;28;20644;-61
2021/05/23 07:12:38;;;;;;;4.20;1.20;;;10.80;91.20;;;;;;5043732;28;20949;-60
2021/05/23 07:15:07;;;;;;;1.40;1.23;;;10.70;91.80;;;;;;5044883;28;20453;-61
2021/05/23 07:17:32;;;;;;;1.77;1.10;;;10.60;91.30;;;;;;5041857;28;20614;-60
2021/05/23 07:19:58;;;;;;;1.43;1.07;;;10.40;91.60;;;;;;5026225;28;20548;-61
2021/05/23 07:22:23;;;;;;;0.90;0.90;;;10.30;92.30;;;;;;5022388;28;20203;-61
2021/05/23 07:24:49;;;;;;;1.20;1.10;;;10.30;93.30;;;;;;5026794;28;20172;-60
2021/05/23 07:27:15;;;;;;;2.50;1.23;;;10.30;93.00;;;;;;5041760;28;20385;-60
2021/05/23 07:29:40;;;;;;;1.10;1.03;;;10.30;93.30;;;;;;5042426;28;21082;-62
2021/05/23 07:32:06;;;;;;;1.10;1.00;;;10.30;92.10;;;;;;5040995;28;20221;-60
2021/05/23 07:34:32;;;;;;;1.50;1.20;;;10.50;93.80;;;;;;5043988;28;20175;-59
2021/05/23 07:36:57;;;;;;;1.10;1.10;;;10.70;93.10;;;;;;5043579;28;20178;-61
2021/05/23 07:39:23;;;;;;;1.10;1.00;;;10.90;92.70;;;;;;5045406;28;20248;-59
2021/05/23 07:41:49;;;;;;;1.23;1.00;;;11.30;92.70;;;;;;5039570;28;20198;-61
2021/05/23 07:44:16;;;;;;;1.20;0.90;;;11.50;91.70;;;;;;5042274;28;20199;-61
2021/05/23 07:46:42;;;;;;;6.27;1.30;;;11.60;84.80;;;;;;5045001;28;20171;-59
2021/05/23 07:49:07;;;;;;;1.73;1.00;;;11.50;80.10;;;;;;5024090;28;20436;-61
2021/05/23 07:51:33;;;;;;;1.83;1.00;;;11.30;81.00;;;;;;5044482;28;20317;-61
2021/05/23 07:53:58;;;;;;;1.00;1.00;;;11.20;81.90;;;;;;5047293;28;20237;-61
2021/05/23 07:56:24;;;;;;;1.30;1.10;;;11.00;81.40;;;;;;5039130;28;20582;-61
2021/05/23 07:58:50;;;;;;;2.67;1.30;;;11.00;84.20;;;;;;5020449;28;20202;-61
2021/05/23 08:01:15;;;;;;;3.07;1.30;;;11.10;84.90;;;;;;5042174;28;20210;-60
2021/05/23 08:03:41;;;;;;;1.90;1.13;;;11.10;81.60;;;;;;5042065;28;20201;-60
2021/05/23 08:06:08;;;;;;;2.50;1.23;;;11.00;84.00;;;;;;5046897;28;20178;-61
2021/05/23 08:08:35;;;;;;;2.93;1.00;;;11.00;85.10;;;;;;5047227;28;20262;-62
2021/05/23 08:11:01;;;;;;;1.17;1.07;;;10.90;83.20;;;;;;5049896;28;20495;-61
2021/05/23 08:13:27;;;;;;;1.63;1.30;;;10.80;83.30;;;;;;5048662;28;20413;-60
2021/05/23 08:15:56;;;;;;;2.33;1.03;;;10.70;83.80;;;;;;5047767;28;20432;-61
2021/05/23 08:18:28;;;;;;;1.30;1.20;;;10.70;75.90;;;;;;5045653;28;20172;-61
2021/05/23 08:20:59;;;;;;;5.03;1.30;;;10.60;75.90;;;;;;5049279;28;20430;-60
2021/05/23 08:23:25;;;;;;;2.77;1.10;;;10.50;77.00;;;;;;5050309;28;20567;-60
2021/05/23 08:25:52;;;;;;;2.90;1.03;;;10.60;76.90;;;;;;5042707;28;20809;-61
2021/05/23 08:28:18;;;;;;;3.97;1.70;;;10.70;78.80;;;;;;5047283;28;20425;-60
2021/05/23 08:30:44;;;;;;;9.53;1.40;;;10.80;77.70;;;;;;5045514;28;20453;-60
2021/05/23 08:33:10;;;;;;;1.43;1.07;;;10.90;78.30;;;;;;5044093;28;20167;-60
2021/05/23 08:35:36;;;;;;;2.43;2.17;;;11.00;76.50;;;;;;5037829;28;20187;-60
2021/05/23 08:38:02;;;;;;;1.53;1.00;;;11.00;77.60;;;;;;5037843;28;20425;-62
2021/05/23 08:40:28;;;;;;;1.30;1.20;;;11.10;73.00;;;;;;5035713;28;20661;-61
2021/05/23 08:42:54;;;;;;;1.53;1.10;;;11.10;71.70;;;;;;5042785;28;20202;-60
2021/05/23 08:45:20;;;;;;;2.50;1.13;;;11.10;69.90;;;;;;5039480;28;20661;-62
2021/05/23 08:47:46;;;;;;;2.67;1.63;;;11.20;66.20;;;;;;5019364;28;20445;-60
2021/05/23 08:50:17;;;;;;;2.40;1.00;;;11.30;69.70;;;;;;5044305;28;20191;-58
2021/05/23 08:52:43;;;;;;;4.17;1.20;;;11.70;64.60;;;;;;5025837;28;20605;-59
2021/05/23 08:55:10;;;;;;;4.23;1.20;;;12.10;62.40;;;;;;5040667;28;20437;-61
2021/05/23 08:57:36;;;;;;;1.80;1.20;;;12.30;63.60;;;;;;5020997;28;20460;-57
2021/05/23 09:00:04;;;;;;;3.33;1.10;;;12.50;54.90;;;;;;5035290;28;20549;-60
2021/05/23 09:02:30;;;;;;;1.47;1.00;;;12.60;54.10;;;;;;5022855;28;20197;-61
2021/05/23 09:04:56;;;;;;;2.50;1.17;;;12.60;52.60;;;;;;5040051;28;20430;-60
2021/05/23 09:07:21;;;;;;;1.87;1.30;;;12.60;53.60;;;;;;5038434;28;20191;-60
2021/05/23 09:09:49;;;;;;;4.00;1.30;;;12.50;54.10;;;;;;5042453;28;20445;-60
2021/05/23 09:12:17;;;;;;;3.50;1.20;;;12.40;53.80;;;;;;5031682;28;20274;-59
2021/05/23 09:14:46;;;;;;;1.63;1.23;;;12.20;54.10;;;;;;5039870;28;20433;-60
2021/05/23 09:17:27;;;;;;;4.10;1.43;;;12.20;54.20;;;;;;5034697;28;21333;-60
2021/05/23 09:19:55;;;;;;;1.27;1.03;;;12.20;55.20;;;;;;5039983;28;20454;-60
2021/05/23 09:22:26;;;;;;;1.30;1.10;;;12.20;55.50;;;;;;5024204;28;20465;-59
2021/05/23 09:25:03;;;;;;;4.20;1.13;;;12.20;54.50;;;;;;5037106;28;21567;-59
2021/05/23 09:27:33;;;;;;;5.40;2.03;;;12.10;54.50;;;;;;5037075;28;20482;-60
2021/05/23 09:30:13;;;;;;;6.97;2.27;;;12.20;54.50;;;;;;5038664;28;21006;-60
2021/05/23 09:32:44;;;;;;;1.90;1.00;;;12.20;53.70;;;;;;5020242;28;20421;-61
2021/05/23 09:35:10;;;;;;;2.13;0.93;;;12.20;54.40;;;;;;5037985;28;20437;-60
2021/05/23 09:37:37;;;;;;;3.33;0.90;;;12.30;53.50;;;;;;5036308;28;20430;-61
2021/05/23 09:40:14;;;;;;;4.73;1.20;;;12.30;52.60;;;;;;5014740;28;20446;-59
2021/05/23 09:42:48;;;;;;;2.10;1.20;;;12.30;52.50;;;;;;5017562;28;20462;-60
2021/05/23 09:45:15;;;;;;;0.90;0.90;;;12.30;54.20;;;;;;5035035;28;20457;-61
2021/05/23 09:47:55;;;;;;;0.80;0.80;;;12.20;54.30;;;;;;5013191;28;20864;-60
2021/05/23 09:50:31;;;;;;;3.33;1.00;;;12.00;54.40;;;;;;5018477;28;21294;-61
2021/05/23 09:52:57;;;;;;;1.00;0.90;;;12.20;54.70;;;;;;5015000;28;20899;-61
2021/05/23 09:55:23;;;;;;;1.03;0.93;;;12.40;54.00;;;;;;5017004;28;20449;-61
2021/05/23 09:57:49;;;;;;;1.10;0.90;;;12.70;53.00;;;;;;5033925;28;20983;-61
2021/05/23 10:00:15;;;;;;;2.20;1.13;;;12.80;50.90;;;;;;5033610;28;20221;-60
2021/05/23 10:02:55;;;;;;;3.00;1.10;;;12.80;51.30;;;;;;5032222;28;20209;-61
2021/05/23 10:05:21;;;;;;;1.33;1.00;;;12.90;50.80;;;;;;5017433;28;20433;-61
2021/05/23 10:07:48;;;;;;;1.63;1.33;;;13.00;51.90;;;;;;5035078;28;20797;-61
2021/05/23 10:10:14;;;;;;;2.20;1.10;;;13.10;52.40;;;;;;5015260;28;20462;-60
2021/05/23 10:12:44;;;;;;;2.30;1.10;;;13.30;53.00;;;;;;5036011;28;20465;-62
2021/05/23 10:15:12;;;;;;;1.40;1.30;;;13.40;52.60;;;;;;5015266;28;20818;-61
2021/05/23 10:17:40;;;;;;;1.60;0.90;;;13.60;53.30;;;;;;5016326;28;20480;-62
2021/05/23 10:20:11;;;;;;;2.50;1.30;;;13.90;52.40;;;;;;5014049;28;20446;-63
2021/05/23 10:22:39;;;;;;;3.90;1.00;;;14.20;50.70;;;;;;5014759;28;20501;-61
2021/05/23 10:25:14;;;;;;;1.03;0.90;;;14.20;49.90;;;;;;5020060;28;20483;-62
2021/05/23 10:27:44;;;;;;;1.60;0.97;;;14.20;49.70;;;;;;5033728;28;20536;-61
2021/05/23 10:30:11;;;;;;;1.33;1.10;;;14.30;46.70;;;;;;5039158;28;20452;-61
2021/05/23 10:32:38;;;;;;;1.00;0.90;;;14.40;45.50;;;;;;5017443;28;20880;-62
2021/05/23 10:35:09;;;;;;;2.43;1.00;;;14.50;45.80;;;;;;5022237;28;20414;-63
2021/05/23 10:37:35;;;;;;;1.93;1.10;;;14.60;44.90;;;;;;5023491;28;20445;-60
2021/05/23 10:40:01;;;;;;;2.53;1.07;;;14.60;45.70;;;;;;5037732;28;20500;-61
2021/05/23 10:42:31;;;;;;;4.77;0.90;;;14.60;45.00;;;;;;5035703;28;20222;-61
2021/05/23 10:44:58;;;;;;;2.30;1.13;;;14.80;45.40;;;;;;5039754;28;20208;-61
2021/05/23 10:47:34;;;;;;;1.10;1.00;;;14.80;45.30;;;;;;5025156;28;20538;-60
2021/05/23 10:50:04;;;;;;;2.07;1.20;;;14.50;45.00;;;;;;5042081;28;20452;-60
2021/05/23 10:52:34;;;;;;;2.53;1.00;;;14.30;45.40;;;;;;5038248;28;20452;-60
2021/05/23 10:55:13;;;;;;;2.50;1.17;;;14.20;45.40;;;;;;5040650;28;20429;-60
2021/05/23 10:57:47;;;;;;;1.90;1.13;;;14.10;45.30;;;;;;5037932;28;20999;-60
2021/05/23 11:00:29;;;;;;;1.97;1.10;;;14.20;45.50;;;;;;5037610;28;21017;-60
2021/05/23 11:02:56;;;;;;;3.63;1.10;;;14.30;45.60;;;;;;5040347;28;20461;-60
2021/05/23 11:05:30;;;;;;;1.97;1.10;;;14.30;45.20;;;;;;5040270;28;20883;-60
2021/05/23 11:08:14;;;;;;;1.70;1.10;;;14.20;44.50;;;;;;5020374;28;20537;-61
2021/05/23 11:10:47;;;;;;;1.17;1.03;;;14.10;44.00;;;;;;5040418;28;20449;-61
2021/05/23 11:13:26;;;;;;;1.90;1.23;;;14.00;45.10;;;;;;5039653;28;20449;-60
2021/05/23 11:15:52;;;;;;;4.57;1.33;;;14.10;45.70;;;;;;5036157;28;20440;-61
2021/05/23 11:18:23;;;;;;;1.97;1.20;;;14.10;46.00;;;;;;5039789;28;20950;-61
2021/05/23 11:21:09;;;;;;;1.07;0.90;;;14.10;45.80;;;;;;5042188;28;20461;-62
2021/05/23 11:23:57;;;;;;;3.00;1.00;;;13.90;45.60;;;;;;5042010;28;20531;-62
2021/05/23 11:26:25;;;;;;;1.57;0.83;;;13.80;46.40;;;;;;5041483;28;20425;-61
2021/05/23 11:28:57;;;;;;;1.70;1.30;;;13.80;46.40;;;;;;5045096;28;20445;-61
2021/05/23 11:31:30;;;;;;;3.33;1.23;;;13.60;46.80;;;;;;5041428;28;21002;-62
2021/05/23 11:33:57;;;;;;;2.40;1.20;;;13.80;47.80;;;;;;5040614;28;20440;-63
2021/05/23 11:36:28;;;;;;;1.27;1.00;;;14.40;49.20;;;;;;5043640;28;21146;-61
2021/05/23 11:38:55;;;;;;;0.90;0.90;;;15.10;47.20;;;;;;5039032;28;20464;-62
2021/05/23 11:41:58;;;;;;;1.70;1.00;;;15.70;42.90;;;;;;5021630;28;20889;-61
2021/05/23 11:44:37;;;;;;;2.70;0.93;;;16.00;41.70;;;;;;4979791;28;20584;-62
2021/05/23 11:47:04;;;;;;;9.10;1.20;;;15.90;40.80;;;;;;5035188;28;20437;-59
2021/05/23 11:49:30;;;;;;;3.50;1.17;;;16.00;41.60;;;;;;5039544;28;20460;-62
2021/05/23 11:52:02;;;;;;;6.10;1.27;;;16.10;41.70;;;;;;5024691;28;20465;-61
2021/05/23 11:54:28;;;;;;;1.60;0.97;;;16.00;41.90;;;;;;5041640;28;20425;-61
2021/05/23 11:56:54;;;;;;;1.10;1.00;;;15.90;42.10;;;;;;5039987;28;20441;-61
2021/05/23 11:59:20;;;;;;;1.87;1.10;;;15.90;40.80;;;;;;5043201;28;21016;-61
2021/05/23 12:01:51;;;;;;;2.17;1.20;;;15.70;40.80;;;;;;5042118;28;20868;-61
2021/05/23 12:04:18;;;;;;;1.13;1.03;;;15.50;41.90;;;;;;5027080;28;20171;-62
2021/05/23 12:06:50;;;;;;;2.70;1.20;;;15.20;42.30;;;;;;5043771;28;20437;-61
2021/05/23 12:09:23;;;;;;;1.20;1.07;;;15.10;42.40;;;;;;5047195;28;20429;-61
2021/05/23 12:11:58;;;;;;;2.60;1.40;;;15.30;41.80;;;;;;5025673;28;20816;-62
2021/05/23 12:14:30;;;;;;;3.43;1.00;;;15.50;41.30;;;;;;5023186;28;20425;-61
2021/05/23 12:17:13;;;;;;;1.30;0.90;;;15.80;39.30;;;;;;5040689;28;20440;-61
2021/05/23 12:19:48;;;;;;;1.13;0.90;;;15.90;39.20;;;;;;5031150;28;20478;-61
2021/05/23 12:22:20;;;;;;;1.77;0.80;;;15.70;39.90;;;;;;5037675;28;20461;-61
2021/05/23 12:24:48;;;;;;;1.07;0.97;;;15.50;37.40;;;;;;5036437;28;20512;-61
2021/05/23 12:27:34;;;;;;;2.30;1.00;;;15.30;38.50;;;;;;5044550;28;20429;-59
2021/05/23 12:30:23;;;;;;;0.83;0.83;;;15.20;39.20;;;;;;5042383;28;20541;-59
2021/05/23 12:32:57;;;;;;;2.30;1.00;;;15.20;38.90;;;;;;5037195;28;20469;-62
2021/05/23 12:35:32;;;;;;;1.10;1.00;;;15.20;40.50;;;;;;5027014;28;20801;-62
2021/05/23 12:38:00;;;;;;;1.70;1.20;;;15.40;40.80;;;;;;5036251;28;20428;-61
2021/05/23 12:40:35;;;;;;;1.70;1.13;;;15.50;40.80;;;;;;5042121;28;20845;-61
2021/05/23 12:43:11;;;;;;;2.93;1.17;;;15.50;40.90;;;;;;5021318;28;20445;-61
2021/05/23 12:45:40;;;;;;;3.37;1.30;;;15.60;40.90;;;;;;5043146;28;20444;-61
2021/05/23 12:48:09;;;;;;;5.93;1.60;;;15.50;40.90;;;;;;5040016;28;20464;-61
2021/05/23 12:50:49;;;;;;;4.03;1.07;;;15.40;40.90;;;;;;5042392;28;20511;-61
2021/05/23 12:53:32;;;;;;;2.50;1.10;;;15.40;41.50;;;;;;5039371;28;20479;-60
2021/05/23 12:56:18;;;;;;;1.60;1.50;;;15.50;42.20;;;;;;5039247;28;20437;-61
2021/05/23 12:59:00;;;;;;;3.10;1.43;;;15.50;42.20;;;;;;5021313;28;20463;-61